Time;durP1;ratioP1;P1;durP2;ratioP2;P2;SDS_P1;SDS_P2;PMS_P1;PMS_P2;Temp;Humidity;BMP_temperature;BMP_pressure;BME280_temperature;BME280_humidity;BME280_pressure;Samples;Min_cycle;Max_cycle;Signal;HPM_P1;HPM_P2
2021/12/25 00:00:13;;;;;;;;;1.50;1.50;;;;;10.46;79.12;99994.50;5046106;28;45344;-82
2021/12/25 00:02:39;;;;;;;;;2.00;2.00;;;;;10.40;79.13;99986.66;5056489;28;45980;-82
2021/12/25 00:05:05;;;;;;;;;1.25;1.25;;;;;10.61;79.35;100017.00;5051423;28;45821;-82
2021/12/25 00:07:31;;;;;;;;;4.00;0.75;;;;;10.33;79.49;99970.22;5065666;28;45411;-81
2021/12/25 00:09:58;;;;;;;;;1.50;1.50;;;;;10.27;79.37;99954.63;5050195;28;45581;-82
2021/12/25 00:12:24;;;;;;;;;3.00;1.75;;;;;10.28;79.07;99966.75;5030386;28;46696;-83
2021/12/25 00:14:49;;;;;;;;;3.00;1.00;;;;;10.46;79.19;99997.09;5055921;28;45619;-82
2021/12/25 00:17:15;;;;;;;;;1.25;1.25;;;;;10.27;79.10;99942.44;5053752;28;45500;-83
2021/12/25 00:19:40;;;;;;;;;1.00;1.00;;;;;10.43;79.40;99973.66;5048617;28;45335;-83
2021/12/25 00:22:05;;;;;;;;;1.75;1.00;;;;;10.44;79.05;99975.38;5057833;28;48089;-84
2021/12/25 00:24:31;;;;;;;;;1.00;1.00;;;;;10.58;79.11;99998.78;5033051;28;45748;-83
2021/12/25 00:27:04;;;;;;;;;2.75;1.00;;;;;10.61;79.20;100003.13;5040556;28;45517;-83
2021/12/25 00:34:45;;;;;;;;;2.00;0.00;;;;;10.46;78.81;99957.19;5041698;28;45318;-83
2021/12/25 00:37:10;;;;;;;;;1.75;0.00;;;;;10.27;79.07;99919.03;5061975;28;45342;-83
2021/12/25 00:39:37;;;;;;;;;0.75;0.00;;;;;10.46;79.19;99939.84;5043105;28;45431;-83
2021/12/25 00:42:04;;;;;;;;;1.00;1.00;;;;;10.54;78.95;99952.84;5037060;28;45655;-82
2021/12/25 00:44:29;;;;;;;;;3.75;1.00;;;;;10.42;78.69;99942.44;5033714;28;45678;-83
2021/12/25 00:46:57;;;;;;;;;0.25;0.25;;;;;10.61;78.97;99966.69;5034727;28;45417;-83
2021/12/25 00:49:23;;;;;;;;;1.25;1.25;;;;;10.45;78.72;99939.81;5035233;28;46891;-83
2021/12/25 00:51:49;;;;;;;;;1.00;1.00;;;;;10.43;78.79;99944.16;5033352;28;46091;-84
2021/12/25 00:54:15;;;;;;;;;1.00;1.00;;;;;10.55;78.92;99964.09;5032367;28;45527;-85
2021/12/25 00:56:41;;;;;;;;;3.25;0.25;;;;;10.46;78.91;99959.78;5033243;28;45393;-84
2021/12/25 00:59:06;;;;;;;;;1.00;1.00;;;;;10.54;78.84;99972.78;5037287;28;45596;-84
2021/12/25 01:01:32;;;;;;;;;1.00;0.00;;;;;10.43;78.86;99955.44;5038439;28;46605;-84
2021/12/25 01:03:57;;;;;;;;;0.75;0.75;;;;;10.25;78.81;99936.41;5037772;28;45444;-84
2021/12/25 01:06:22;;;;;;;;;1.00;1.00;;;;;10.52;78.91;99980.59;5033592;28;45602;-85
2021/12/25 01:08:48;;;;;;;;;2.00;1.50;;;;;10.45;78.82;99974.56;5032107;28;45377;-82
2021/12/25 01:11:14;;;;;;;;;1.75;1.00;;;;;10.54;78.80;99984.06;5027999;28;45485;-83
2021/12/25 01:13:46;;;;;;;;;1.00;0.50;;;;;10.47;79.04;99971.91;5032660;28;45573;-83
2021/12/25 01:16:31;;;;;;;;;0.00;0.00;;;;;10.57;78.93;99986.63;5034925;28;45556;-83
2021/12/25 01:49:51;;;;;;;;;1.25;1.00;;;;;10.34;78.85;99995.34;5056656;28;45343;-83
2021/12/25 01:52:19;;;;;;;;;0.25;0.25;;;;;10.35;78.80;99993.63;5028091;28;45385;-83
2021/12/25 01:54:44;;;;;;;;;0.00;0.00;;;;;10.15;78.71;99971.13;5056514;28;45345;-85
2021/12/25 01:57:10;;;;;;;;;1.50;1.50;;;;;10.18;78.89;99959.81;5041018;28;45402;-83
2021/12/25 01:59:35;;;;;;;;;1.50;1.50;;;;;10.21;78.59;99960.69;5053956;28;45513;-83
2021/12/25 02:02:01;;;;;;;;;0.00;0.00;;;;;10.44;78.79;99995.34;5046748;28;46311;-83
2021/12/25 02:04:26;;;;;;;;;1.00;1.00;;;;;10.32;78.53;99975.41;5060772;28;45345;-83
2021/12/25 02:06:52;;;;;;;;;2.50;0.75;;;;;10.16;78.60;99954.63;5044417;28;45295;-84
2021/12/25 02:09:17;;;;;;;;;2.00;0.75;;;;;10.23;78.26;99956.34;5050204;28;45403;-83
2021/12/25 02:11:43;;;;;;;;;0.00;0.00;;;;;10.27;78.31;99959.81;5055795;28;46006;-84
2021/12/25 02:14:09;;;;;;;;;2.00;2.00;;;;;10.23;78.20;99951.13;5047989;28;45389;-83
2021/12/25 02:16:53;;;;;;;;;0.50;0.00;;;;;10.61;78.48;100011.78;5064866;28;45405;-84
2021/12/25 02:19:32;;;;;;;;;0.25;0.25;;;;;10.36;78.35;99967.56;5053812;28;45391;-83
2021/12/25 02:22:01;;;;;;;;;2.75;1.00;;;;;10.66;78.09;100016.13;5061208;28;46481;-84
2021/12/25 02:24:26;;;;;;;;;0.00;0.00;;;;;10.64;78.18;100006.59;5046446;28;45231;-82
2021/12/25 02:26:52;;;;;;;;;2.00;2.00;;;;;10.39;77.71;99975.38;5058561;28;45400;-83
2021/12/25 02:29:18;;;;;;;;;0.00;0.00;;;;;10.21;78.09;99965.91;5057513;28;45306;-83
2021/12/25 02:31:43;;;;;;;;;0.00;0.00;;;;;10.32;77.78;99993.63;5051675;28;45336;-83
2021/12/25 02:34:08;;;;;;;;;0.25;0.25;;;;;10.04;78.13;99962.47;5049639;28;45199;-83
2021/12/25 02:36:34;;;;;;;;;0.50;0.00;;;;;9.97;78.07;99966.81;5058529;28;45282;-83
2021/12/25 02:38:59;;;;;;;;;0.00;0.00;;;;;9.93;78.36;99960.75;5071611;28;45324;-82
2021/12/25 02:41:25;;;;;;;;;0.00;0.00;;;;;10.12;78.33;100008.41;5053309;28;45424;-83
2021/12/25 02:43:50;;;;;;;;;0.00;0.00;;;;;10.16;78.41;100011.84;5057635;28;45426;-84
2021/12/25 02:46:16;;;;;;;;;0.75;0.75;;;;;10.26;78.52;100010.09;5063932;28;45326;-84
2021/12/25 02:48:42;;;;;;;;;0.00;0.00;;;;;10.11;78.07;99972.84;5051747;28;45282;-84
2021/12/25 02:51:10;;;;;;;;;0.00;0.00;;;;;10.28;78.09;99997.97;5055663;28;45394;-84
2021/12/25 02:53:38;;;;;;;;;1.00;0.00;;;;;10.22;78.25;99975.44;5056993;28;45332;-84
2021/12/25 02:56:04;;;;;;;;;0.00;0.00;;;;;10.08;77.82;99953.78;5047064;28;45727;-84
2021/12/25 02:58:29;;;;;;;;;0.00;0.00;;;;;10.10;77.52;99950.31;5047535;28;45459;-84
2021/12/25 03:01:16;;;;;;;;;0.00;0.00;;;;;10.30;78.03;99990.16;5056014;28;45386;-84
2021/12/25 03:03:43;;;;;;;;;0.75;0.00;;;;;10.19;78.06;99974.56;5058230;28;45448;-83
2021/12/25 03:06:09;;;;;;;;;0.00;0.00;;;;;10.32;77.88;99983.22;5047105;28;45508;-83
2021/12/25 03:08:36;;;;;;;;;0.00;0.00;;;;;10.43;77.91;99997.06;5058829;28;45435;-83
2021/12/25 03:11:06;;;;;;;;;1.00;0.00;;;;;10.28;77.99;99961.53;5040293;28;45463;-83
2021/12/25 03:16:16;;;;;;;;;1.75;0.00;;;;;10.22;77.77;99964.16;5046989;28;45806;-83
2021/12/25 03:18:48;;;;;;;;;0.00;0.00;;;;;10.06;77.61;99934.72;5057760;28;45385;-83
2021/12/25 03:21:16;;;;;;;;;0.75;0.75;;;;;10.29;77.71;99957.22;5053923;28;45565;-83
2021/12/25 03:23:41;;;;;;;;;0.00;0.00;;;;;10.52;77.85;99991.00;5048992;28;45506;-83
2021/12/25 03:26:07;;;;;;;;;1.00;0.00;;;;;10.46;77.59;99970.19;5032748;28;45481;-83
2021/12/25 03:28:38;;;;;;;;;0.50;0.50;;;;;10.62;77.43;99984.88;5058621;28;45442;-83
2021/12/25 03:31:07;;;;;;;;;0.00;0.00;;;;;10.64;77.58;99990.09;5049737;28;47134;-83
2021/12/25 03:33:33;;;;;;;;;1.00;1.00;;;;;10.58;77.82;99977.97;5054123;28;45458;-83
2021/12/25 03:36:01;;;;;;;;;0.75;0.75;;;;;10.57;77.27;99977.97;5052079;28;45433;-83
2021/12/25 03:38:28;;;;;;;;;0.00;0.00;;;;;10.62;77.26;99981.41;5066400;28;45257;-83
2021/12/25 03:40:55;;;;;;;;;0.75;0.00;;;;;10.62;77.27;99982.28;5056883;28;45436;-82
2021/12/25 03:43:21;;;;;;;;;0.00;0.00;;;;;10.73;77.27;99989.19;5046323;28;45426;-83
2021/12/25 03:45:47;;;;;;;;;1.00;1.00;;;;;10.66;76.98;99990.97;5055216;28;45378;-83
2021/12/25 03:48:28;;;;;;;;;0.00;0.00;;;;;10.71;76.96;99986.59;5045540;28;45411;-82
2021/12/25 03:58:59;;;;;;;;;0.00;0.00;;;;;10.37;77.30;99939.84;5054043;28;45422;-84
2021/12/25 04:04:34;;;;;;;;;1.00;1.00;;;;;10.77;77.23;100010.00;5063102;28;45432;-84
2021/12/25 04:06:58;;;;;;;;;0.00;0.00;;;;;10.60;77.28;99991.81;5033444;28;45766;-84
2021/12/25 04:09:26;;;;;;;;;0.50;0.00;;;;;10.72;77.40;100013.50;5052675;28;45448;-83
2021/12/25 04:11:53;;;;;;;;;0.50;0.50;;;;;10.73;77.38;100010.00;5057365;28;45695;-84
2021/12/25 04:14:19;;;;;;;;;0.00;0.00;;;;;10.73;77.27;100003.09;5045597;28;45523;-83
2021/12/25 04:16:44;;;;;;;;;4.00;0.00;;;;;10.55;77.22;99975.38;5057274;28;45482;-83
2021/12/25 04:19:10;;;;;;;;;0.00;0.00;;;;;10.81;77.13;100008.22;5051661;28;45753;-83
2021/12/25 04:21:36;;;;;;;;;1.00;0.00;;;;;10.73;77.46;99999.59;5055110;28;45755;-83
2021/12/25 04:24:02;;;;;;;;;0.00;0.00;;;;;10.74;77.50;99996.13;5045618;28;45465;-83
2021/12/25 04:26:28;;;;;;;;;0.00;0.00;;;;;10.79;77.22;99999.59;5046351;28;45347;-83
2021/12/25 04:31:32;;;;;;;;;0.00;0.00;;;;;10.62;77.40;99964.06;5047280;28;46109;-83
2021/12/25 04:47:53;;;;;;;;;0.00;0.00;;;;;10.93;77.23;100011.69;5052522;28;45440;-83
2021/12/25 05:04:17;;;;;;;;;1.00;0.00;;;;;10.85;77.54;99996.97;5080217;28;45809;-83
2021/12/25 05:06:42;;;;;;;;;2.00;1.00;;;;;10.81;77.55;99992.63;5066277;28;44767;-83
2021/12/25 05:09:08;;;;;;;;;0.50;0.50;;;;;10.94;77.52;100010.81;5053007;28;45322;-83
2021/12/25 05:11:33;;;;;;;;;0.00;0.00;;;;;10.86;77.38;100001.28;5042032;28;45619;-83
2021/12/25 05:13:59;;;;;;;;;0.75;0.75;;;;;10.84;77.48;99999.56;5026720;28;45493;-83
2021/12/25 05:16:25;;;;;;;;;1.00;1.00;;;;;10.75;77.62;99985.69;5058151;28;45422;-83
2021/12/25 05:18:51;;;;;;;;;0.25;0.25;;;;;10.73;77.47;99982.25;5049322;28;45381;-84
2021/12/25 05:21:18;;;;;;;;;2.00;0.00;;;;;10.69;77.28;99983.13;5049101;28;45275;-83
2021/12/25 05:23:44;;;;;;;;;0.00;0.00;;;;;10.90;77.50;100016.00;5056230;28;46609;-82
2021/12/25 05:26:09;;;;;;;;;0.50;0.50;;;;;10.76;77.70;99990.03;5044695;28;45357;-83
2021/12/25 05:28:46;;;;;;;;;0.00;0.00;;;;;10.73;77.72;99983.97;5041894;28;45323;-82
2021/12/25 05:31:14;;;;;;;;;0.00;0.00;;;;;10.90;77.61;100017.75;5051332;28;45457;-83
2021/12/25 05:33:41;;;;;;;;;3.50;1.25;;;;;10.96;77.66;100019.47;5046098;28;45357;-84
2021/12/25 05:36:08;;;;;;;;;0.00;0.00;;;;;10.75;77.60;99988.31;5046992;28;46560;-84
2021/12/25 05:38:34;;;;;;;;;0.00;0.00;;;;;10.73;77.77;99989.19;5059953;28;45276;-84
2021/12/25 05:41:01;;;;;;;;;0.50;0.50;;;;;10.88;77.63;100014.31;5053820;28;45420;-83
2021/12/25 05:43:26;;;;;;;;;0.00;0.00;;;;;10.94;77.95;100029.91;5052076;28;45437;-82
2021/12/25 05:45:52;;;;;;;;;0.50;0.00;;;;;10.77;77.78;99985.69;5033714;28;45408;-84
2021/12/25 05:48:17;;;;;;;;;0.00;0.00;;;;;10.72;77.72;99977.06;5026028;28;45237;-83
2021/12/25 05:50:43;;;;;;;;;0.00;0.00;;;;;10.57;77.80;99976.22;5047405;28;45474;-83
2021/12/25 05:53:08;;;;;;;;;1.00;0.00;;;;;10.73;77.55;99995.28;5054381;28;46124;-83
2021/12/25 05:55:34;;;;;;;;;0.00;0.00;;;;;10.65;77.44;99981.41;5052496;28;45531;-83
2021/12/25 05:58:03;;;;;;;;;0.25;0.25;;;;;10.79;77.47;100007.41;5048331;28;45350;-83
2021/12/25 06:00:30;;;;;;;;;0.00;0.00;;;;;10.94;77.55;100027.31;5049537;28;45506;-82
2021/12/25 06:02:56;;;;;;;;;0.00;0.00;;;;;10.88;77.39;100022.13;5056696;28;45323;-83
2021/12/25 06:05:21;;;;;;;;;0.00;0.00;;;;;10.93;77.44;100027.31;5056203;28;45511;-83
2021/12/25 06:07:47;;;;;;;;;2.00;0.00;;;;;10.87;77.33;100022.97;5049298;28;45676;-83
2021/12/25 06:10:12;;;;;;;;;0.00;0.00;;;;;10.94;77.39;100029.03;5045434;28;45771;-83
2021/12/25 06:12:40;;;;;;;;;1.00;1.00;;;;;10.75;77.38;99995.25;5059562;28;45634;-83
2021/12/25 06:15:10;;;;;;;;;1.50;1.00;;;;;10.76;77.18;100015.22;5052411;28;45266;-83
2021/12/25 06:17:36;;;;;;;;;0.00;0.00;;;;;10.63;77.54;99986.59;5050719;28;45422;-83
2021/12/25 06:20:04;;;;;;;;;0.00;0.00;;;;;10.61;77.64;99983.16;5061027;28;45686;-83
2021/12/25 06:22:29;;;;;;;;;0.50;0.00;;;;;10.61;77.60;99979.69;5048448;28;46305;-84
2021/12/25 06:24:54;;;;;;;;;0.25;0.00;;;;;10.84;77.60;100021.25;5064461;28;45343;-84
2021/12/25 06:27:21;;;;;;;;;0.00;0.00;;;;;10.66;77.54;99988.34;5063240;28;45845;-83
2021/12/25 06:29:48;;;;;;;;;0.00;0.00;;;;;10.88;77.81;100030.78;5041281;28;45288;-83
2021/12/25 06:32:14;;;;;;;;;0.00;0.00;;;;;10.82;77.86;100015.19;5061194;28;46190;-83
2021/12/25 06:34:40;;;;;;;;;0.00;0.00;;;;;10.89;77.80;100034.25;5050150;28;45329;-83
2021/12/25 06:37:05;;;;;;;;;0.00;0.00;;;;;10.49;77.68;99978.88;5056620;28;45344;-83
2021/12/25 06:39:31;;;;;;;;;0.00;0.00;;;;;10.90;77.89;100044.66;5058186;28;45416;-85
2021/12/25 06:41:57;;;;;;;;;0.00;0.00;;;;;10.92;77.78;100041.19;5047699;28;45654;-84
2021/12/25 06:44:24;;;;;;;;;0.25;0.00;;;;;10.95;77.53;100041.16;5032552;28;45387;-84
2021/12/25 06:46:51;;;;;;;;;2.00;0.25;;;;;10.67;77.97;99997.88;5064583;28;45474;-84
2021/12/25 06:49:17;;;;;;;;;0.00;0.00;;;;;10.63;77.61;99989.22;5041243;28;46556;-85
2021/12/25 06:51:43;;;;;;;;;0.00;0.00;;;;;10.82;77.67;100020.41;5052868;28;45463;-84
2021/12/25 06:54:08;;;;;;;;;0.25;0.25;;;;;10.89;77.53;100035.13;5045978;28;45818;-85
2021/12/25 06:56:33;;;;;;;;;0.00;0.00;;;;;10.79;77.88;100014.31;5059087;28;45443;-85
2021/12/25 06:58:59;;;;;;;;;0.00;0.00;;;;;10.90;77.84;100029.03;5045401;28;45366;-84
2021/12/25 07:01:24;;;;;;;;;2.00;0.00;;;;;10.85;77.79;100020.41;5039465;28;45829;-85
2021/12/25 07:03:53;;;;;;;;;0.00;0.00;;;;;10.95;77.54;100038.56;5058141;28;45404;-84
2021/12/25 07:06:21;;;;;;;;;1.00;1.00;;;;;10.82;77.64;100009.09;5046805;28;45432;-84
2021/12/25 07:08:47;;;;;;;;;0.50;0.50;;;;;10.87;77.68;100022.97;5056788;28;45367;-83
2021/12/25 07:11:13;;;;;;;;;1.00;1.00;;;;;10.88;77.82;100030.78;5042948;28;45465;-84
2021/12/25 07:13:41;;;;;;;;;0.00;0.00;;;;;10.86;77.75;100018.63;5038991;28;45242;-84
2021/12/25 07:16:06;;;;;;;;;0.00;0.00;;;;;10.86;77.20;100027.31;5057961;28;45471;-84
2021/12/25 07:18:31;;;;;;;;;0.00;0.00;;;;;11.07;77.50;100055.88;5047475;28;45453;-84
2021/12/25 07:20:57;;;;;;;;;1.25;0.00;;;;;10.95;77.44;100036.84;5053080;28;45622;-84
2021/12/25 07:23:23;;;;;;;;;1.50;0.00;;;;;10.93;77.55;100032.50;5063985;28;45303;-84
2021/12/25 07:25:48;;;;;;;;;1.00;1.00;;;;;10.80;77.84;100029.94;5065260;28;44744;-84
2021/12/25 07:28:14;;;;;;;;;0.75;0.75;;;;;10.75;77.83;100023.91;5077742;28;45407;-83
2021/12/25 07:30:39;;;;;;;;;0.75;0.75;;;;;10.96;78.12;100048.13;5054206;28;45554;-84
2021/12/25 07:33:05;;;;;;;;;1.00;1.00;;;;;10.72;78.25;100021.31;5059815;28;45388;-84
2021/12/25 07:35:31;;;;;;;;;1.75;0.75;;;;;10.72;77.98;100023.91;5051232;28;45350;-83
2021/12/25 07:37:56;;;;;;;;;0.00;0.00;;;;;10.92;78.13;100060.28;5059161;28;45366;-83
2021/12/25 07:40:21;;;;;;;;;0.00;0.00;;;;;10.90;78.02;100046.38;5046139;28;46464;-84
2021/12/25 07:42:47;;;;;;;;;0.00;0.00;;;;;10.94;78.05;100050.75;5056089;28;45390;-84
2021/12/25 07:45:13;;;;;;;;;0.00;0.00;;;;;10.94;78.03;100055.06;5053728;28;45426;-84
2021/12/25 07:47:45;;;;;;;;;0.00;0.00;;;;;10.79;77.82;100040.38;5036828;28;45486;-84
2021/12/25 07:50:13;;;;;;;;;0.00;0.00;;;;;10.79;78.09;100037.75;5056404;28;46641;-87
2021/12/25 07:52:39;;;;;;;;;0.25;0.25;;;;;10.62;77.94;100018.72;5033477;28;45214;-85
2021/12/25 07:55:05;;;;;;;;;1.00;0.00;;;;;10.81;78.16;100049.88;5038014;28;45301;-84
2021/12/25 07:57:31;;;;;;;;;1.25;1.25;;;;;10.84;78.35;100056.84;5040614;28;45527;-84
2021/12/25 07:59:56;;;;;;;;;1.00;0.50;;;;;10.80;78.33;100047.28;5032655;28;46434;-85
2021/12/25 08:02:21;;;;;;;;;1.00;0.00;;;;;10.82;78.25;100042.97;5045340;28;45470;-85
2021/12/25 08:04:47;;;;;;;;;0.00;0.00;;;;;10.80;78.07;100035.16;5036834;28;45398;-85
2021/12/25 08:07:12;;;;;;;;;0.25;0.25;;;;;10.56;78.04;100003.13;5041494;28;45383;-84
2021/12/25 08:09:38;;;;;;;;;0.00;0.00;;;;;10.70;78.02;100013.50;5029431;28;47334;-83
2021/12/25 08:12:04;;;;;;;;;1.25;1.25;;;;;10.75;78.20;100024.75;5036592;28;45525;-83
2021/12/25 08:14:32;;;;;;;;;1.50;1.00;;;;;10.95;77.92;100048.97;5056449;28;45416;-84
2021/12/25 08:17:00;;;;;;;;;0.00;0.00;;;;;10.85;77.67;100036.00;5034112;28;45429;-84
2021/12/25 08:19:26;;;;;;;;;0.00;0.00;;;;;10.65;77.85;100007.44;5036657;28;45433;-84
2021/12/25 08:21:52;;;;;;;;;1.50;0.00;;;;;10.66;77.38;100019.59;5031896;28;45369;-84
2021/12/25 08:24:19;;;;;;;;;0.00;0.00;;;;;10.90;77.88;100060.28;5036768;28;45599;-83
2021/12/25 08:26:46;;;;;;;;;1.25;1.25;;;;;10.93;77.97;100061.16;5032788;28;45619;-84
2021/12/25 08:29:12;;;;;;;;;1.50;0.00;;;;;10.88;77.79;100054.19;5035955;28;45522;-83
2021/12/25 08:31:38;;;;;;;;;0.00;0.00;;;;;10.84;77.97;100043.84;5034704;28;45273;-84
2021/12/25 08:34:04;;;;;;;;;0.75;0.25;;;;;10.80;78.11;100031.66;5036156;28;45445;-85
2021/12/25 08:36:30;;;;;;;;;1.00;0.00;;;;;10.83;77.69;100040.34;5034641;28;45372;-86
2021/12/25 08:38:55;;;;;;;;;0.75;0.75;;;;;10.92;77.68;100057.69;5032745;28;45513;-85
2021/12/25 08:41:25;;;;;;;;;0.00;0.00;;;;;10.87;77.76;100056.81;5033722;28;45495;-83
2021/12/25 08:43:56;;;;;;;;;1.00;1.00;;;;;10.49;77.65;99997.09;5035295;28;45460;-88
2021/12/25 08:46:42;;;;;;;;;0.00;0.00;;;;;10.84;77.77;100049.03;5035391;28;45606;-83
2021/12/25 08:49:08;;;;;;;;;0.75;0.00;;;;;10.86;77.44;100048.16;5059418;28;48416;-83
2021/12/25 08:51:34;;;;;;;;;0.00;0.00;;;;;11.01;77.24;100073.28;5043164;28;45610;-82
2021/12/25 08:53:59;;;;;;;;;1.00;1.00;;;;;10.79;77.20;100040.38;5050459;28;45437;-83
2021/12/25 08:56:27;;;;;;;;;3.00;0.00;;;;;10.88;77.12;100066.38;5068154;28;44864;-82
2021/12/25 08:58:52;;;;;;;;;0.25;0.25;;;;;10.88;77.19;100082.00;5047238;28;45252;-82
2021/12/25 09:01:18;;;;;;;;;0.75;0.75;;;;;10.44;77.04;100016.16;5036750;28;45243;-85
2021/12/25 09:03:43;;;;;;;;;0.00;0.00;;;;;10.68;77.22;100050.78;5057813;28;45219;-79
2021/12/25 09:06:09;;;;;;;;;1.75;1.75;;;;;10.71;77.20;100056.00;5040598;28;45377;-79
2021/12/25 09:08:34;;;;;;;;;1.00;1.00;;;;;10.10;77.08;99960.72;5056554;28;48009;-82
2021/12/25 09:11:01;;;;;;;;;1.00;0.00;;;;;10.62;77.26;100042.16;5038150;28;45680;-80
2021/12/25 09:13:27;;;;;;;;;0.50;0.50;;;;;10.94;77.15;100087.19;5041144;28;45464;-79
2021/12/25 09:15:52;;;;;;;;;0.25;0.25;;;;;10.93;77.15;100089.81;5031461;28;45493;-78
2021/12/25 09:18:18;;;;;;;;;0.50;0.50;;;;;10.88;76.53;100085.44;5072451;28;46261;-81
2021/12/25 09:20:43;;;;;;;;;2.00;0.00;;;;;10.90;76.93;100091.53;5035240;28;45432;-81
2021/12/25 09:23:08;;;;;;;;;1.00;1.00;;;;;10.75;77.01;100063.81;5029183;28;45409;-80
2021/12/25 09:25:34;;;;;;;;;0.50;0.25;;;;;10.98;77.10;100093.25;5034124;28;45432;-80
2021/12/25 09:28:01;;;;;;;;;1.00;1.00;;;;;11.00;76.69;100086.31;5035550;28;45509;-82
2021/12/25 09:30:26;;;;;;;;;0.00;0.00;;;;;10.96;76.74;100080.22;5038887;28;45458;-80
2021/12/25 09:32:52;;;;;;;;;1.00;1.00;;;;;10.97;76.87;100075.91;5046510;28;45377;-80
2021/12/25 09:35:18;;;;;;;;;1.00;1.00;;;;;10.69;76.54;100036.94;5035686;28;45541;-79
2021/12/25 09:37:43;;;;;;;;;0.50;0.00;;;;;10.90;76.65;100075.03;5032961;28;45342;-82
2021/12/25 09:40:10;;;;;;;;;0.00;0.00;;;;;11.00;76.89;100092.34;5035340;28;45496;-80
2021/12/25 09:42:39;;;;;;;;;0.00;0.00;;;;;10.97;76.49;100083.72;5033570;28;45448;-81
2021/12/25 09:45:05;;;;;;;;;1.00;1.00;;;;;11.07;76.68;100103.63;5040572;28;45388;-80
2021/12/25 09:47:30;;;;;;;;;0.75;0.75;;;;;10.84;76.83;100070.72;5038153;28;45457;-82
2021/12/25 09:49:56;;;;;;;;;2.25;1.00;;;;;11.02;76.81;100106.25;5044137;28;45469;-80
2021/12/25 09:52:21;;;;;;;;;0.50;0.25;;;;;11.10;76.73;100114.06;5048169;28;45371;-81
2021/12/25 09:54:47;;;;;;;;;0.00;0.00;;;;;10.93;76.39;100093.25;5055451;28;45341;-78
2021/12/25 09:57:14;;;;;;;;;0.00;0.00;;;;;11.09;76.66;100108.84;5032756;28;45382;-84
2021/12/25 09:59:40;;;;;;;;;0.00;0.00;;;;;11.06;76.56;100101.91;5034487;28;45225;-80
2021/12/25 10:02:13;;;;;;;;;2.00;0.00;;;;;11.09;76.48;100103.63;5042969;28;45921;-83
2021/12/25 10:04:45;;;;;;;;;0.00;0.00;;;;;11.07;76.35;100102.75;5062475;28;45236;-82
2021/12/25 10:07:26;;;;;;;;;0.00;0.00;;;;;10.88;76.68;100088.06;5051011;28;45373;-83
2021/12/25 10:09:54;;;;;;;;;1.00;1.00;;;;;11.08;76.65;100107.09;5042743;28;45516;-78
2021/12/25 10:12:19;;;;;;;;;0.25;0.00;;;;;10.86;76.54;100071.59;5037793;28;45365;-80
2021/12/25 10:14:52;;;;;;;;;0.00;0.00;;;;;10.95;76.48;100078.50;5034883;28;45396;-84
2021/12/25 10:17:25;;;;;;;;;0.00;0.00;;;;;11.09;76.52;100114.91;5031534;28;45498;-82
2021/12/25 10:20:12;;;;;;;;;1.50;1.50;;;;;10.81;76.06;100057.69;5039999;28;45330;-83
2021/12/25 10:22:56;;;;;;;;;3.00;1.25;;;;;11.18;76.31;100114.00;5034665;28;45487;-84
2021/12/25 10:25:22;;;;;;;;;0.50;0.50;;;;;11.19;76.20;100107.06;5053689;28;45682;-79
2021/12/25 10:27:58;;;;;;;;;1.25;0.00;;;;;11.23;76.14;100101.84;5045803;28;46246;-83
2021/12/25 10:30:24;;;;;;;;;0.50;0.25;;;;;11.10;75.87;100080.19;5033119;28;45552;-82
2021/12/25 10:32:50;;;;;;;;;1.00;0.25;;;;;11.26;75.93;100109.63;5051007;28;45437;-80
2021/12/25 10:35:21;;;;;;;;;0.00;0.00;;;;;11.30;76.00;100102.66;5056124;28;45302;-81
2021/12/25 10:37:48;;;;;;;;;0.00;0.00;;;;;11.06;75.80;100048.94;5062350;28;45430;-82
2021/12/25 10:40:28;;;;;;;;;0.25;0.00;;;;;11.18;75.99;100055.84;5043310;28;45457;-81
2021/12/25 10:43:00;;;;;;;;;0.75;0.75;;;;;11.32;75.81;100072.25;5037349;28;45358;-83
2021/12/25 10:45:28;;;;;;;;;1.00;1.00;;;;;11.37;75.81;100080.06;5057976;28;45296;-82
2021/12/25 10:48:10;;;;;;;;;0.75;0.00;;;;;11.50;75.83;100088.66;5044032;28;45373;-84
2021/12/25 10:50:43;;;;;;;;;1.00;1.00;;;;;11.21;75.68;100045.41;5033588;28;45422;-83
2021/12/25 10:53:31;;;;;;;;;3.50;1.75;;;;;10.99;75.50;99985.59;5035930;28;45433;-83
2021/12/25 10:56:12;;;;;;;;;0.00;0.00;;;;;11.54;75.00;100069.53;5036716;28;45505;-83
2021/12/25 10:58:39;;;;;;;;;2.00;0.75;;;;;11.54;75.11;100066.91;5065249;28;46277;-83
2021/12/25 11:01:09;;;;;;;;;0.75;0.00;;;;;11.41;74.73;100045.28;5039878;28;45295;-83
2021/12/25 11:03:39;;;;;;;;;0.00;0.00;;;;;11.52;74.76;100063.47;5040253;28;45475;-83
2021/12/25 11:06:13;;;;;;;;;2.25;0.25;;;;;11.42;74.52;100027.91;5038485;28;45502;-82
2021/12/25 11:08:40;;;;;;;;;0.00;0.00;;;;;11.18;74.71;99969.88;5042945;28;45430;-85
2021/12/25 11:11:15;;;;;;;;;1.00;1.00;;;;;11.28;74.26;99987.19;5040844;28;45380;-82
2021/12/25 11:13:49;;;;;;;;;0.00;0.00;;;;;11.71;74.15;100052.91;5037869;28;45723;-81
2021/12/25 11:16:33;;;;;;;;;0.00;0.00;;;;;11.78;74.31;100065.03;5036776;28;45435;-85
2021/12/25 11:19:04;;;;;;;;;1.00;0.00;;;;;11.76;74.33;100061.59;5033364;28;46146;-82
2021/12/25 11:21:56;;;;;;;;;0.00;0.00;;;;;11.59;73.87;100035.63;5037199;28;45454;-81
2021/12/25 11:24:25;;;;;;;;;0.00;0.00;;;;;11.71;74.09;100053.78;5035869;28;45366;-85
2021/12/25 11:26:54;;;;;;;;;1.00;0.75;;;;;11.68;74.09;100046.00;5044007;28;45480;-82
2021/12/25 11:29:23;;;;;;;;;0.25;0.00;;;;;11.76;74.33;100051.16;5057620;28;46212;-80
2021/12/25 11:31:52;;;;;;;;;1.00;1.00;;;;;11.52;74.08;100016.56;5047148;28;45456;-80
2021/12/25 11:34:19;;;;;;;;;2.00;0.00;;;;;11.72;74.08;100050.31;5029471;28;45538;-82
2021/12/25 11:36:48;;;;;;;;;2.50;0.00;;;;;11.58;74.28;100020.88;5045490;28;45378;-80
2021/12/25 11:39:22;;;;;;;;;0.50;0.50;;;;;11.63;74.21;100032.97;5039501;28;45415;-82
2021/12/25 11:41:49;;;;;;;;;0.25;0.25;;;;;11.57;74.16;100006.94;5042619;28;45526;-82
2021/12/25 11:44:43;;;;;;;;;0.00;0.00;;;;;11.83;73.82;100046.75;5038114;28;45449;-83
2021/12/25 11:47:33;;;;;;;;;0.00;0.00;;;;;11.88;73.83;100044.97;5058450;28;45309;-83
2021/12/25 11:50:01;;;;;;;;;1.00;1.00;;;;;11.95;73.71;100035.34;5045242;28;45457;-86
2021/12/25 11:52:33;;;;;;;;;0.75;0.75;;;;;12.01;73.53;100030.09;5064261;28;45380;-86
2021/12/25 11:56:20;;;;;;;;;1.75;0.00;;;;;12.07;73.52;100031.81;5051283;28;45492;-89
2021/12/25 11:58:40;;;;;;;;;0.25;0.25;;;;;11.74;72.99;99978.16;5046585;28;45397;-84
2021/12/25 12:01:32;;;;;;;;;2.25;0.00;;;;;12.05;73.24;100037.00;5047234;28;45511;-85
2021/12/25 12:04:11;;;;;;;;;2.00;2.00;;;;;11.35;73.25;99934.16;5074024;28;45281;-86
2021/12/25 12:06:45;;;;;;;;;0.75;0.50;;;;;12.01;73.42;100035.31;5064012;28;45564;-86
2021/12/25 12:09:18;;;;;;;;;0.00;0.00;;;;;12.00;73.32;100034.44;5051424;28;45551;-87
2021/12/25 12:12:02;;;;;;;;;0.00;0.00;;;;;11.11;73.19;99891.75;5044401;28;46147;-86
2021/12/25 12:14:32;;;;;;;;;1.00;1.00;;;;;11.63;72.99;99973.03;5039056;28;45499;-87
2021/12/25 12:17:01;;;;;;;;;1.00;1.00;;;;;11.71;73.43;99978.19;5066093;28;44780;-86
2021/12/25 12:19:33;;;;;;;;;1.00;1.00;;;;;12.04;73.35;100030.91;5066028;28;44877;-87
2021/12/25 12:27:56;;;;;;;;;0.00;0.00;;;;;11.62;73.26;99950.44;5048552;28;45303;-87
2021/12/25 12:30:30;;;;;;;;;1.00;1.00;;;;;12.12;72.73;100030.00;5044325;28;45591;-87
2021/12/25 12:32:56;;;;;;;;;0.00;0.00;;;;;11.71;72.59;99964.28;5047410;28;46593;-87
2021/12/25 12:35:34;;;;;;;;;0.75;0.00;;;;;11.75;72.79;99972.06;5040382;28;45840;-86
2021/12/25 12:38:43;;;;;;;;;0.50;0.50;;;;;11.65;72.58;99959.97;5058718;28;45534;-86
2021/12/25 12:41:34;;;;;;;;;1.00;0.00;;;;;12.02;72.98;100022.25;5028511;28;45520;-87
2021/12/25 12:44:06;;;;;;;;;0.00;0.00;;;;;11.19;72.80;99877.81;5077718;28;47186;-87
2021/12/25 12:46:50;;;;;;;;;0.75;0.75;;;;;11.96;72.48;100011.88;5046723;28;45344;-85
2021/12/25 12:49:20;;;;;;;;;0.00;0.00;;;;;11.78;72.82;99995.50;5053518;28;45510;-87
2021/12/25 12:51:49;;;;;;;;;0.00;0.00;;;;;11.12;72.60;99906.50;5075614;28;45611;-87
2021/12/25 12:54:42;;;;;;;;;1.00;0.00;;;;;11.61;72.89;99976.53;5044728;28;47268;-87
2021/12/25 12:57:07;;;;;;;;;0.00;0.00;;;;;11.23;72.67;99911.66;5025531;28;45746;-87
2021/12/25 12:59:44;;;;;;;;;0.00;0.00;;;;;11.81;73.39;100015.47;5047582;28;45449;-87
2021/12/25 13:02:11;;;;;;;;;1.00;1.00;;;;;11.41;73.35;99948.88;5047057;28;45594;-87